TVS4520 LFOH-LGKO
Flight info
| Callsign | TVS4520 |
|---|---|
| Flight time | 3h 7m |
| Altitude | 35000 |
| Route | INPAX UL612 RESMI UM975 PEKIM DCT LUSAR DCT AKASU DCT OTKEK DCT BAXON DCT SPL DCT RETRA DCT TALAS UN130 MES UL609 LARKI |
| Aircraft | B738/M-SDFGHIJ1LORVWXYZ/LB1 |
Departure
| Time | 2026-04-22 09:59 |
|---|---|
| Airport | Le Havre-Octeville Airport (LFOH) |
Arrival
| Time | 2026-04-22 13:06 |
|---|---|
| Airport | Kos International Airport "Ippokratis" (LGKO) |
| Time | Latitude | Longitude | Altitude | Speed | Heading |
|---|---|---|---|---|---|
| 2026-04-22 09:31 | 49.53192 | 0.09164 | 302 ft | 0 kts | 310° |
| 2026-04-22 09:52 | 49.53196 | 0.09156 | 303 ft | 1 kts | 309° |
| 2026-04-22 09:52 | 49.53202 | 0.09142 | 302 ft | 2 kts | 303° |
| 2026-04-22 09:52 | 49.53209 | 0.09124 | 304 ft | 2 kts | 300° |
| 2026-04-22 09:52 | 49.53217 | 0.09104 | 307 ft | 3 kts | 300° |
| 2026-04-22 09:53 | 49.53226 | 0.09079 | 309 ft | 3 kts | 300° |
| 2026-04-22 09:53 | 49.53238 | 0.09053 | 309 ft | 3 kts | 307° |
| 2026-04-22 09:53 | 49.53255 | 0.09022 | 310 ft | 5 kts | 314° |
| 2026-04-22 09:53 | 49.53289 | 0.08971 | 311 ft | 10 kts | 314° |
| 2026-04-22 09:54 | 49.53350 | 0.08871 | 309 ft | 15 kts | 311° |
| 2026-04-22 09:54 | 49.53336 | 0.08737 | 310 ft | 14 kts | 224° |
| 2026-04-22 09:54 | 49.53267 | 0.08637 | 307 ft | 13 kts | 221° |
| 2026-04-22 09:54 | 49.53199 | 0.08545 | 310 ft | 13 kts | 222° |
| 2026-04-22 09:55 | 49.53131 | 0.08449 | 311 ft | 14 kts | 223° |
| 2026-04-22 09:55 | 49.53056 | 0.08343 | 315 ft | 14 kts | 223° |
| 2026-04-22 09:55 | 49.52984 | 0.08240 | 315 ft | 15 kts | 223° |
| 2026-04-22 09:55 | 49.52905 | 0.08127 | 316 ft | 15 kts | 221° |
| 2026-04-22 09:56 | 49.52829 | 0.08017 | 315 ft | 15 kts | 223° |
| 2026-04-22 09:56 | 49.52755 | 0.07912 | 311 ft | 14 kts | 221° |
| 2026-04-22 09:56 | 49.52688 | 0.07844 | 313 ft | 9 kts | 200° |
| 2026-04-22 09:56 | 49.52647 | 0.07801 | 313 ft | 7 kts | 262° |
| 2026-04-22 09:57 | 49.52680 | 0.07800 | 313 ft | 7 kts | 52° |
| 2026-04-22 09:57 | 49.52687 | 0.07812 | 313 ft | 0 kts | 43° |
| 2026-04-22 09:58 | 49.52693 | 0.07820 | 313 ft | 6 kts | 44° |
| 2026-04-22 09:58 | 49.52885 | 0.08098 | 316 ft | 72 kts | 43° |
| 2026-04-22 09:59 | 49.53417 | 0.08860 | 310 ft | 134 kts | 43° |
| 2026-04-22 09:59 | 49.54200 | 0.09983 | 568 ft | 159 kts | 47° |
| 2026-04-22 09:59 | 49.55004 | 0.11131 | 1308 ft | 161 kts | 58° |
| 2026-04-22 09:59 | 49.55387 | 0.12802 | 1788 ft | 178 kts | 92° |
| 2026-04-22 10:00 | 49.55123 | 0.14722 | 2372 ft | 190 kts | 107° |
| 2026-04-22 10:00 | 49.54743 | 0.16754 | 2826 ft | 204 kts | 102° |
| 2026-04-22 10:00 | 49.54416 | 0.18892 | 3526 ft | 210 kts | 101° |
| 2026-04-22 10:00 | 49.54066 | 0.21207 | 3933 ft | 231 kts | 102° |
| 2026-04-22 10:01 | 49.53693 | 0.23650 | 4758 ft | 237 kts | 102° |
| 2026-04-22 10:01 | 49.53321 | 0.26139 | 5619 ft | 240 kts | 103° |
| 2026-04-22 10:01 | 49.52571 | 0.28445 | 6403 ft | 247 kts | 126° |
| 2026-04-22 10:01 | 49.51468 | 0.30489 | 7244 ft | 251 kts | 127° |
| 2026-04-22 10:02 | 49.50329 | 0.32573 | 8004 ft | 257 kts | 127° |
| 2026-04-22 10:02 | 49.49174 | 0.34691 | 8811 ft | 260 kts | 127° |
| 2026-04-22 10:02 | 49.47997 | 0.36841 | 9531 ft | 266 kts | 128° |
| 2026-04-22 10:02 | 49.46802 | 0.39044 | 10258 ft | 271 kts | 127° |
| 2026-04-22 10:03 | 49.45570 | 0.41325 | 10645 ft | 289 kts | 127° |
| 2026-04-22 10:03 | 49.44238 | 0.43803 | 10911 ft | 310 kts | 128° |
| 2026-04-22 10:03 | 49.42841 | 0.46399 | 11549 ft | 318 kts | 128° |
| 2026-04-22 10:03 | 49.41419 | 0.49044 | 12235 ft | 324 kts | 128° |
| 2026-04-22 10:04 | 49.39974 | 0.51732 | 12896 ft | 329 kts | 128° |
| 2026-04-22 10:04 | 49.38503 | 0.54467 | 13542 ft | 335 kts | 128° |
| 2026-04-22 10:04 | 49.37010 | 0.57247 | 14161 ft | 342 kts | 127° |
| 2026-04-22 10:04 | 49.35482 | 0.60093 | 14796 ft | 348 kts | 128° |
| 2026-04-22 10:05 | 49.33934 | 0.62970 | 15418 ft | 353 kts | 128° |
| 2026-04-22 10:05 | 49.32358 | 0.65892 | 16020 ft | 358 kts | 128° |
| 2026-04-22 10:05 | 49.30758 | 0.68859 | 16592 ft | 364 kts | 128° |
| 2026-04-22 10:05 | 49.29132 | 0.71870 | 17157 ft | 369 kts | 128° |
| 2026-04-22 10:06 | 49.27486 | 0.74917 | 17724 ft | 374 kts | 128° |
| 2026-04-22 10:06 | 49.25813 | 0.78011 | 18269 ft | 380 kts | 128° |
| 2026-04-22 10:06 | 49.24119 | 0.81142 | 18813 ft | 385 kts | 128° |
| 2026-04-22 10:06 | 49.22424 | 0.84269 | 19364 ft | 389 kts | 128° |
| 2026-04-22 10:07 | 49.20666 | 0.87507 | 19902 ft | 393 kts | 128° |
| 2026-04-22 10:07 | 49.18934 | 0.90693 | 20414 ft | 397 kts | 128° |
| 2026-04-22 10:07 | 49.17133 | 0.94001 | 20916 ft | 402 kts | 128° |
| 2026-04-22 10:07 | 49.15363 | 0.97249 | 21409 ft | 406 kts | 128° |
| 2026-04-22 10:08 | 49.13521 | 1.00625 | 21904 ft | 410 kts | 128° |
| 2026-04-22 10:08 | 49.11709 | 1.03942 | 22371 ft | 414 kts | 128° |
| 2026-04-22 10:08 | 49.09860 | 1.07323 | 22829 ft | 418 kts | 128° |
| 2026-04-22 10:08 | 49.07990 | 1.10739 | 23264 ft | 422 kts | 128° |
| 2026-04-22 10:09 | 49.06097 | 1.14189 | 23703 ft | 426 kts | 128° |
| 2026-04-22 10:09 | 49.04806 | 1.16541 | 23989 ft | 428 kts | 128° |
| 2026-04-22 10:09 | 49.02262 | 1.21169 | 24548 ft | 433 kts | 129° |
| 2026-04-22 10:09 | 49.00317 | 1.24703 | 24930 ft | 437 kts | 129° |
| 2026-04-22 10:10 | 48.98994 | 1.27105 | 25190 ft | 440 kts | 129° |
| 2026-04-22 10:10 | 48.97021 | 1.30680 | 25581 ft | 443 kts | 129° |
| 2026-04-22 10:10 | 48.95030 | 1.34283 | 25946 ft | 447 kts | 129° |
| 2026-04-22 10:10 | 48.93017 | 1.37923 | 26295 ft | 451 kts | 129° |
| 2026-04-22 10:11 | 48.90990 | 1.41582 | 26640 ft | 455 kts | 129° |
| 2026-04-22 10:11 | 48.88971 | 1.45221 | 26977 ft | 458 kts | 130° |
| 2026-04-22 10:11 | 48.86908 | 1.48936 | 27297 ft | 462 kts | 130° |
| 2026-04-22 10:11 | 48.84829 | 1.52675 | 27648 ft | 465 kts | 130° |
| 2026-04-22 10:12 | 48.82732 | 1.56439 | 27939 ft | 469 kts | 130° |
| 2026-04-22 10:12 | 48.80615 | 1.60230 | 28256 ft | 472 kts | 130° |
| 2026-04-22 10:12 | 48.78488 | 1.64036 | 28555 ft | 475 kts | 130° |
| 2026-04-22 10:12 | 48.76341 | 1.67876 | 28828 ft | 479 kts | 130° |
| 2026-04-22 10:13 | 48.74182 | 1.71730 | 29123 ft | 482 kts | 131° |
| 2026-04-22 10:13 | 48.72002 | 1.75614 | 29416 ft | 484 kts | 131° |
| 2026-04-22 10:13 | 48.69815 | 1.79506 | 29631 ft | 488 kts | 131° |
| 2026-04-22 10:13 | 48.67605 | 1.83433 | 29876 ft | 491 kts | 131° |
| 2026-04-22 10:14 | 48.65383 | 1.87378 | 30170 ft | 493 kts | 131° |
| 2026-04-22 10:14 | 48.63153 | 1.91331 | 30476 ft | 495 kts | 131° |
| 2026-04-22 10:14 | 48.60916 | 1.95291 | 30747 ft | 497 kts | 131° |
| 2026-04-22 10:14 | 48.58664 | 1.99268 | 30940 ft | 500 kts | 131° |
| 2026-04-22 10:15 | 48.56396 | 2.03264 | 31180 ft | 502 kts | 131° |
| 2026-04-22 10:15 | 48.54117 | 2.07277 | 31449 ft | 503 kts | 131° |
| 2026-04-22 10:15 | 48.51833 | 2.11288 | 31708 ft | 505 kts | 132° |
| 2026-04-22 10:15 | 48.49546 | 2.15303 | 32052 ft | 504 kts | 132° |
| 2026-04-22 10:16 | 48.47266 | 2.19300 | 32443 ft | 502 kts | 132° |
| 2026-04-22 10:16 | 48.44990 | 2.23286 | 32783 ft | 501 kts | 132° |
| 2026-04-22 10:16 | 48.42718 | 2.27257 | 33039 ft | 501 kts | 132° |
| 2026-04-22 10:16 | 48.40437 | 2.31237 | 33313 ft | 502 kts | 133° |
| 2026-04-22 10:17 | 48.38161 | 2.35201 | 33627 ft | 501 kts | 133° |
| 2026-04-22 10:17 | 48.35883 | 2.39167 | 33960 ft | 499 kts | 133° |
| 2026-04-22 10:17 | 48.33613 | 2.43111 | 34222 ft | 499 kts | 133° |
| 2026-04-22 10:17 | 48.31336 | 2.47060 | 34453 ft | 500 kts | 133° |
| 2026-04-22 10:18 | 48.29063 | 2.50996 | 34741 ft | 499 kts | 133° |
| 2026-04-22 10:18 | 48.26790 | 2.54929 | 35032 ft | 497 kts | 132° |
| 2026-04-22 10:18 | 48.24527 | 2.58839 | 35319 ft | 496 kts | 132° |
| 2026-04-22 10:18 | 48.22267 | 2.62738 | 35605 ft | 494 kts | 132° |
| 2026-04-22 10:19 | 48.20016 | 2.66614 | 35894 ft | 492 kts | 132° |
| 2026-04-22 10:19 | 48.17768 | 2.70479 | 36162 ft | 491 kts | 132° |
| 2026-04-22 10:19 | 48.15523 | 2.74334 | 36374 ft | 491 kts | 131° |
| 2026-04-22 10:19 | 48.13278 | 2.78184 | 36530 ft | 492 kts | 131° |
| 2026-04-22 10:20 | 48.11027 | 2.82039 | 36757 ft | 491 kts | 131° |
| 2026-04-22 10:20 | 48.08789 | 2.85857 | 37144 ft | 485 kts | 131° |
| 2026-04-22 10:20 | 48.04332 | 2.93461 | 37163 ft | 486 kts | 131° |
| 2026-04-22 10:21 | 47.99923 | 3.00966 | 37147 ft | 481 kts | 131° |
| 2026-04-22 10:21 | 47.95511 | 3.08460 | 37153 ft | 481 kts | 131° |
| 2026-04-22 10:22 | 47.91071 | 3.15894 | 37157 ft | 480 kts | 132° |
| 2026-04-22 10:22 | 47.86628 | 3.23337 | 37160 ft | 481 kts | 131° |
| 2026-04-22 10:23 | 47.82225 | 3.30858 | 37143 ft | 482 kts | 130° |
| 2026-04-22 10:23 | 47.77826 | 3.38408 | 37154 ft | 484 kts | 131° |
| 2026-04-22 10:24 | 47.73305 | 3.45817 | 37149 ft | 484 kts | 131° |
| 2026-04-22 10:24 | 47.68835 | 3.53289 | 37153 ft | 485 kts | 131° |
| 2026-04-22 10:25 | 47.64329 | 3.60770 | 37151 ft | 487 kts | 131° |
| 2026-04-22 10:25 | 47.59792 | 3.68265 | 37148 ft | 490 kts | 132° |
| 2026-04-22 10:26 | 47.55237 | 3.75787 | 37146 ft | 491 kts | 131° |
| 2026-04-22 10:26 | 47.50681 | 3.83330 | 37138 ft | 492 kts | 132° |
| 2026-04-22 10:27 | 47.46108 | 3.90861 | 37138 ft | 492 kts | 132° |
| 2026-04-22 10:27 | 47.41523 | 3.98365 | 37145 ft | 492 kts | 132° |
| 2026-04-22 10:28 | 47.36924 | 4.05888 | 37124 ft | 494 kts | 132° |
| 2026-04-22 10:28 | 47.32316 | 4.13385 | 37160 ft | 493 kts | 133° |
| 2026-04-22 10:29 | 47.27705 | 4.20864 | 37138 ft | 492 kts | 131° |
| 2026-04-22 10:29 | 47.23141 | 4.28313 | 37127 ft | 489 kts | 132° |
| 2026-04-22 10:30 | 47.18580 | 4.35720 | 37125 ft | 487 kts | 132° |
| 2026-04-22 10:30 | 47.14037 | 4.43060 | 37106 ft | 485 kts | 132° |
| 2026-04-22 10:31 | 47.09523 | 4.50380 | 37126 ft | 483 kts | 132° |
| 2026-04-22 10:31 | 47.04980 | 4.57644 | 37126 ft | 483 kts | 133° |
| 2026-04-22 10:32 | 47.00415 | 4.64894 | 37123 ft | 484 kts | 133° |
| 2026-04-22 10:32 | 46.95848 | 4.72175 | 37136 ft | 486 kts | 133° |
| 2026-04-22 10:33 | 46.91300 | 4.79399 | 37125 ft | 486 kts | 133° |
| 2026-04-22 10:33 | 46.86712 | 4.86673 | 37131 ft | 487 kts | 133° |
| 2026-04-22 10:34 | 46.82112 | 4.93950 | 37131 ft | 488 kts | 133° |
| 2026-04-22 10:34 | 46.77495 | 5.01246 | 37120 ft | 490 kts | 133° |
| 2026-04-22 10:35 | 46.72857 | 5.08550 | 37118 ft | 491 kts | 133° |
| 2026-04-22 10:35 | 46.68464 | 5.16150 | 37098 ft | 489 kts | 120° |
| 2026-04-22 10:36 | 46.65679 | 5.25099 | 37104 ft | 484 kts | 101° |
| 2026-04-22 10:36 | 46.64214 | 5.34601 | 37115 ft | 480 kts | 98° |
| 2026-04-22 10:37 | 46.62080 | 5.48859 | 37117 ft | 480 kts | 98° |
| 2026-04-22 10:38 | 46.60635 | 5.58360 | 37120 ft | 481 kts | 98° |
| 2026-04-22 10:38 | 46.59161 | 5.67856 | 37109 ft | 480 kts | 98° |
| 2026-04-22 10:39 | 46.57721 | 5.77346 | 37121 ft | 482 kts | 99° |
| 2026-04-22 10:39 | 46.56182 | 5.86840 | 37123 ft | 484 kts | 99° |
| 2026-04-22 10:40 | 46.54644 | 5.96382 | 37133 ft | 486 kts | 99° |
| 2026-04-22 10:40 | 46.53100 | 6.05936 | 37126 ft | 486 kts | 99° |
| 2026-04-22 10:41 | 46.51546 | 6.15501 | 37142 ft | 487 kts | 99° |
| 2026-04-22 10:41 | 46.49996 | 6.25055 | 37126 ft | 485 kts | 99° |
| 2026-04-22 10:42 | 46.48446 | 6.34610 | 37141 ft | 487 kts | 99° |
| 2026-04-22 10:42 | 46.46877 | 6.44118 | 37179 ft | 488 kts | 99° |
| 2026-04-22 10:43 | 46.45338 | 6.53659 | 37227 ft | 484 kts | 99° |
| 2026-04-22 10:43 | 46.43752 | 6.63113 | 37213 ft | 483 kts | 99° |
| 2026-04-22 10:44 | 46.42157 | 6.72632 | 37141 ft | 489 kts | 99° |
| 2026-04-22 10:44 | 46.40536 | 6.82171 | 37117 ft | 485 kts | 100° |
| 2026-04-22 10:45 | 46.38943 | 6.91600 | 37112 ft | 480 kts | 99° |
| 2026-04-22 10:45 | 46.37384 | 7.01063 | 37110 ft | 480 kts | 99° |
| 2026-04-22 10:46 | 46.35761 | 7.10433 | 37083 ft | 479 kts | 100° |
| 2026-04-22 10:46 | 46.34166 | 7.19785 | 37098 ft | 480 kts | 99° |
| 2026-04-22 10:47 | 46.32559 | 7.29195 | 37065 ft | 482 kts | 99° |
| 2026-04-22 10:47 | 46.30932 | 7.38533 | 37090 ft | 483 kts | 100° |
| 2026-04-22 10:48 | 46.29275 | 7.47950 | 37097 ft | 484 kts | 100° |
| 2026-04-22 10:48 | 46.27616 | 7.57378 | 37111 ft | 484 kts | 100° |
| 2026-04-22 10:49 | 46.25950 | 7.66850 | 37095 ft | 488 kts | 100° |
| 2026-04-22 10:49 | 46.24217 | 7.76338 | 37117 ft | 490 kts | 100° |
| 2026-04-22 10:50 | 46.22529 | 7.86004 | 37094 ft | 494 kts | 100° |
| 2026-04-22 10:50 | 46.20827 | 7.95658 | 37105 ft | 495 kts | 100° |
| 2026-04-22 10:51 | 46.19118 | 8.05201 | 37105 ft | 486 kts | 100° |
| 2026-04-22 10:51 | 46.17421 | 8.14540 | 37117 ft | 485 kts | 101° |
| 2026-04-22 10:52 | 46.15711 | 8.23931 | 37153 ft | 482 kts | 100° |
| 2026-04-22 10:52 | 46.13973 | 8.33289 | 37173 ft | 482 kts | 101° |
| 2026-04-22 10:53 | 46.12279 | 8.42688 | 37174 ft | 486 kts | 101° |
| 2026-04-22 10:53 | 46.10351 | 8.52071 | 37180 ft | 493 kts | 110° |
| 2026-04-22 10:54 | 46.07380 | 8.61029 | 37173 ft | 497 kts | 114° |
| 2026-04-22 10:54 | 46.04840 | 8.68418 | 37197 ft | 496 kts | 114° |
| 2026-04-22 10:55 | 46.01797 | 8.77316 | 37185 ft | 495 kts | 114° |
| 2026-04-22 10:55 | 45.98788 | 8.86190 | 37186 ft | 492 kts | 113° |
| 2026-04-22 10:56 | 45.95800 | 8.95045 | 37196 ft | 491 kts | 114° |
| 2026-04-22 10:56 | 45.92830 | 9.03866 | 37179 ft | 490 kts | 113° |
| 2026-04-22 10:57 | 45.89854 | 9.12670 | 37178 ft | 489 kts | 114° |
| 2026-04-22 10:57 | 45.86882 | 9.21428 | 37196 ft | 487 kts | 114° |
| 2026-04-22 10:58 | 45.83904 | 9.30166 | 37179 ft | 487 kts | 114° |
| 2026-04-22 10:58 | 45.80924 | 9.38880 | 37196 ft | 486 kts | 114° |
| 2026-04-22 10:59 | 45.77945 | 9.47552 | 37175 ft | 485 kts | 114° |
| 2026-04-22 10:59 | 45.74967 | 9.56200 | 37174 ft | 484 kts | 114° |
| 2026-04-22 11:00 | 45.71981 | 9.64855 | 37197 ft | 484 kts | 114° |
| 2026-04-22 11:00 | 45.68984 | 9.73500 | 37179 ft | 485 kts | 114° |
| 2026-04-22 11:01 | 45.65984 | 9.82141 | 37188 ft | 485 kts | 114° |
| 2026-04-22 11:01 | 45.62971 | 9.90780 | 37179 ft | 486 kts | 114° |
| 2026-04-22 11:02 | 45.59950 | 9.99412 | 37178 ft | 487 kts | 114° |
| 2026-04-22 11:02 | 45.56942 | 10.07987 | 37176 ft | 487 kts | 115° |
| 2026-04-22 11:03 | 45.53872 | 10.16714 | 37158 ft | 488 kts | 115° |
| 2026-04-22 11:03 | 45.50816 | 10.25362 | 37163 ft | 489 kts | 115° |
| 2026-04-22 11:04 | 45.47749 | 10.34017 | 37160 ft | 489 kts | 115° |
| 2026-04-22 11:04 | 45.44682 | 10.42645 | 37173 ft | 489 kts | 115° |
| 2026-04-22 11:05 | 45.41604 | 10.51277 | 37195 ft | 488 kts | 115° |
| 2026-04-22 11:05 | 45.38544 | 10.59837 | 37187 ft | 489 kts | 115° |
| 2026-04-22 11:06 | 45.35488 | 10.68474 | 37182 ft | 489 kts | 113° |
| 2026-04-22 11:06 | 45.32663 | 10.77253 | 37196 ft | 489 kts | 112° |
| 2026-04-22 11:07 | 45.29881 | 10.86086 | 37185 ft | 489 kts | 112° |
| 2026-04-22 11:07 | 45.27065 | 10.94893 | 37193 ft | 490 kts | 112° |
| 2026-04-22 11:08 | 45.24221 | 11.03673 | 37179 ft | 490 kts | 112° |
| 2026-04-22 11:08 | 45.21360 | 11.12448 | 37182 ft | 490 kts | 113° |
| 2026-04-22 11:09 | 45.18497 | 11.21199 | 37175 ft | 490 kts | 113° |
| 2026-04-22 11:09 | 45.15620 | 11.29971 | 37184 ft | 490 kts | 113° |
| 2026-04-22 11:10 | 45.12740 | 11.38718 | 37187 ft | 490 kts | 113° |
| 2026-04-22 11:10 | 45.09855 | 11.47464 | 37173 ft | 490 kts | 113° |
| 2026-04-22 11:11 | 45.06963 | 11.56198 | 37170 ft | 490 kts | 113° |
| 2026-04-22 11:11 | 45.04066 | 11.64913 | 37177 ft | 490 kts | 113° |
| 2026-04-22 11:12 | 45.01157 | 11.73638 | 37171 ft | 491 kts | 113° |
| 2026-04-22 11:12 | 44.98239 | 11.82360 | 37174 ft | 491 kts | 113° |
| 2026-04-22 11:13 | 44.95308 | 11.91083 | 37177 ft | 493 kts | 114° |
| 2026-04-22 11:13 | 44.92384 | 11.99771 | 37175 ft | 493 kts | 114° |
| 2026-04-22 11:14 | 44.89429 | 12.08509 | 37180 ft | 494 kts | 114° |
| 2026-04-22 11:14 | 44.86471 | 12.17249 | 37172 ft | 494 kts | 114° |
| 2026-04-22 11:15 | 44.83502 | 12.25985 | 37162 ft | 494 kts | 114° |
| 2026-04-22 11:15 | 44.80529 | 12.34724 | 37166 ft | 494 kts | 114° |
| 2026-04-22 11:16 | 44.77546 | 12.43440 | 37172 ft | 494 kts | 114° |
| 2026-04-22 11:16 | 44.74552 | 12.52146 | 37164 ft | 494 kts | 114° |
| 2026-04-22 11:17 | 44.71558 | 12.60825 | 37161 ft | 493 kts | 114° |
| 2026-04-22 11:17 | 44.68561 | 12.69495 | 37155 ft | 493 kts | 114° |
| 2026-04-22 11:18 | 44.65559 | 12.78154 | 37156 ft | 493 kts | 115° |
| 2026-04-22 11:18 | 44.62555 | 12.86798 | 37156 ft | 493 kts | 115° |
| 2026-04-22 11:19 | 44.59542 | 12.95431 | 37158 ft | 493 kts | 115° |
| 2026-04-22 11:19 | 44.56522 | 13.04049 | 37164 ft | 492 kts | 115° |
| 2026-04-22 11:20 | 44.53499 | 13.12663 | 37156 ft | 492 kts | 115° |
| 2026-04-22 11:20 | 44.50471 | 13.21262 | 37158 ft | 492 kts | 115° |
| 2026-04-22 11:21 | 44.47439 | 13.29849 | 37158 ft | 492 kts | 115° |
| 2026-04-22 11:21 | 44.44415 | 13.38378 | 37154 ft | 492 kts | 115° |
| 2026-04-22 11:22 | 44.41373 | 13.46966 | 37151 ft | 493 kts | 114° |
| 2026-04-22 11:22 | 44.38589 | 13.55714 | 37148 ft | 492 kts | 112° |
| 2026-04-22 11:23 | 44.35935 | 13.64540 | 37154 ft | 493 kts | 112° |
| 2026-04-22 11:23 | 44.33264 | 13.73359 | 37145 ft | 493 kts | 112° |
| 2026-04-22 11:24 | 44.30546 | 13.82160 | 37146 ft | 493 kts | 112° |
| 2026-04-22 11:24 | 44.27816 | 13.90944 | 37147 ft | 493 kts | 113° |
| 2026-04-22 11:25 | 44.25073 | 13.99713 | 37138 ft | 494 kts | 113° |
| 2026-04-22 11:25 | 44.22320 | 14.08496 | 37140 ft | 495 kts | 113° |
| 2026-04-22 11:26 | 44.19559 | 14.17278 | 37141 ft | 495 kts | 113° |
| 2026-04-22 11:26 | 44.16795 | 14.26051 | 37141 ft | 496 kts | 113° |
| 2026-04-22 11:27 | 44.14018 | 14.34845 | 37135 ft | 496 kts | 113° |
| 2026-04-22 11:27 | 44.11234 | 14.43624 | 37131 ft | 496 kts | 113° |
| 2026-04-22 11:28 | 44.08444 | 14.52390 | 37124 ft | 495 kts | 113° |
| 2026-04-22 11:28 | 44.05651 | 14.61128 | 37116 ft | 495 kts | 113° |
| 2026-04-22 11:29 | 44.02855 | 14.69857 | 37111 ft | 493 kts | 114° |
| 2026-04-22 11:29 | 44.00060 | 14.78548 | 37107 ft | 492 kts | 114° |
| 2026-04-22 11:30 | 43.97281 | 14.87154 | 37094 ft | 491 kts | 114° |
| 2026-04-22 11:30 | 43.94481 | 14.95804 | 37098 ft | 491 kts | 114° |
| 2026-04-22 11:31 | 43.91679 | 15.04436 | 37109 ft | 491 kts | 114° |
| 2026-04-22 11:31 | 43.88869 | 15.13068 | 37105 ft | 491 kts | 114° |
| 2026-04-22 11:32 | 43.86047 | 15.21702 | 37106 ft | 492 kts | 114° |
| 2026-04-22 11:32 | 43.83216 | 15.30331 | 37105 ft | 493 kts | 115° |
| 2026-04-22 11:33 | 43.80374 | 15.38970 | 37105 ft | 494 kts | 115° |
| 2026-04-22 11:33 | 43.77520 | 15.47623 | 37099 ft | 494 kts | 115° |
| 2026-04-22 11:34 | 43.74657 | 15.56266 | 37093 ft | 495 kts | 115° |
| 2026-04-22 11:34 | 43.71784 | 15.64910 | 37085 ft | 495 kts | 115° |
| 2026-04-22 11:35 | 43.68906 | 15.73546 | 37079 ft | 495 kts | 115° |
| 2026-04-22 11:35 | 43.66025 | 15.82172 | 37077 ft | 494 kts | 115° |
| 2026-04-22 11:36 | 43.63143 | 15.90765 | 37069 ft | 493 kts | 115° |
| 2026-04-22 11:36 | 43.60257 | 15.99340 | 37067 ft | 492 kts | 115° |
| 2026-04-22 11:37 | 43.57370 | 16.07897 | 37057 ft | 492 kts | 115° |
| 2026-04-22 11:37 | 43.54484 | 16.16419 | 37054 ft | 491 kts | 115° |
| 2026-04-22 11:38 | 43.51590 | 16.24947 | 37040 ft | 490 kts | 115° |
| 2026-04-22 11:38 | 43.47030 | 16.37524 | 37043 ft | 489 kts | 120° |
| 2026-04-22 11:39 | 43.43715 | 16.45699 | 37043 ft | 489 kts | 120° |
| 2026-04-22 11:39 | 43.40393 | 16.53854 | 37045 ft | 489 kts | 120° |
| 2026-04-22 11:40 | 43.37093 | 16.62035 | 37048 ft | 489 kts | 120° |
| 2026-04-22 11:40 | 43.34353 | 16.68842 | 37042 ft | 490 kts | 120° |
| 2026-04-22 11:41 | 43.31052 | 16.77036 | 37051 ft | 491 kts | 120° |
| 2026-04-22 11:41 | 43.27734 | 16.85248 | 37048 ft | 492 kts | 120° |
| 2026-04-22 11:42 | 43.24406 | 16.93456 | 37043 ft | 493 kts | 120° |
| 2026-04-22 11:42 | 43.21064 | 17.01677 | 37048 ft | 494 kts | 121° |
| 2026-04-22 11:43 | 43.17713 | 17.09893 | 37037 ft | 494 kts | 121° |
| 2026-04-22 11:43 | 43.14353 | 17.18107 | 37029 ft | 495 kts | 121° |
| 2026-04-22 11:44 | 43.10985 | 17.26319 | 37032 ft | 495 kts | 121° |
| 2026-04-22 11:44 | 43.07609 | 17.34531 | 37020 ft | 495 kts | 121° |
| 2026-04-22 11:45 | 43.04248 | 17.42677 | 37023 ft | 495 kts | 121° |
| 2026-04-22 11:45 | 43.00860 | 17.50866 | 37010 ft | 495 kts | 121° |
| 2026-04-22 11:46 | 42.97465 | 17.59047 | 37009 ft | 495 kts | 121° |
| 2026-04-22 11:46 | 42.94066 | 17.67215 | 37010 ft | 495 kts | 121° |
| 2026-04-22 11:47 | 42.90664 | 17.75371 | 37007 ft | 494 kts | 122° |
| 2026-04-22 11:47 | 42.87262 | 17.83508 | 37005 ft | 494 kts | 122° |
| 2026-04-22 11:48 | 42.83855 | 17.91632 | 37014 ft | 493 kts | 122° |
| 2026-04-22 11:48 | 42.80443 | 17.99743 | 37022 ft | 494 kts | 122° |
| 2026-04-22 11:49 | 42.77019 | 18.07858 | 37013 ft | 495 kts | 122° |
| 2026-04-22 11:49 | 42.73588 | 18.15971 | 37022 ft | 495 kts | 122° |
| 2026-04-22 11:50 | 42.70150 | 18.24077 | 37014 ft | 495 kts | 122° |
| 2026-04-22 11:50 | 42.66696 | 18.32192 | 37024 ft | 496 kts | 122° |
| 2026-04-22 11:51 | 42.63235 | 18.40308 | 37021 ft | 497 kts | 122° |
| 2026-04-22 11:51 | 42.59770 | 18.48410 | 37021 ft | 497 kts | 122° |
| 2026-04-22 11:52 | 42.56288 | 18.56528 | 37012 ft | 498 kts | 123° |
| 2026-04-22 11:52 | 42.52800 | 18.64638 | 37020 ft | 497 kts | 123° |
| 2026-04-22 11:53 | 42.49315 | 18.72722 | 37031 ft | 496 kts | 123° |
| 2026-04-22 11:53 | 42.45829 | 18.80780 | 37028 ft | 496 kts | 123° |
| 2026-04-22 11:54 | 42.42338 | 18.88833 | 37017 ft | 495 kts | 123° |
| 2026-04-22 11:54 | 42.38844 | 18.96869 | 37022 ft | 495 kts | 123° |
| 2026-04-22 11:55 | 42.35347 | 19.04889 | 37016 ft | 495 kts | 123° |
| 2026-04-22 11:55 | 42.31842 | 19.12906 | 37007 ft | 496 kts | 123° |
| 2026-04-22 11:56 | 42.28335 | 19.20914 | 36996 ft | 496 kts | 123° |
| 2026-04-22 11:56 | 42.24819 | 19.28916 | 36992 ft | 495 kts | 123° |
| 2026-04-22 11:57 | 42.21331 | 19.36866 | 36992 ft | 496 kts | 123° |
| 2026-04-22 11:57 | 42.17877 | 19.44928 | 36989 ft | 496 kts | 123° |
| 2026-04-22 11:58 | 42.14434 | 19.52992 | 36999 ft | 497 kts | 123° |
| 2026-04-22 11:58 | 42.10978 | 19.61050 | 36998 ft | 496 kts | 123° |
| 2026-04-22 11:59 | 42.07520 | 19.69091 | 36999 ft | 496 kts | 123° |
| 2026-04-22 11:59 | 42.04041 | 19.77131 | 37007 ft | 498 kts | 123° |
| 2026-04-22 12:00 | 42.00547 | 19.85180 | 36998 ft | 499 kts | 123° |
| 2026-04-22 12:00 | 41.97041 | 19.93233 | 36997 ft | 500 kts | 123° |
| 2026-04-22 12:01 | 41.93523 | 20.01294 | 36996 ft | 500 kts | 123° |
| 2026-04-22 12:01 | 41.90004 | 20.09349 | 36997 ft | 501 kts | 123° |
| 2026-04-22 12:02 | 41.86478 | 20.17397 | 36996 ft | 500 kts | 123° |
| 2026-04-22 12:02 | 41.82942 | 20.25439 | 37001 ft | 499 kts | 123° |
| 2026-04-22 12:03 | 41.79327 | 20.33365 | 36991 ft | 497 kts | 125° |
| 2026-04-22 12:03 | 41.75797 | 20.41315 | 36999 ft | 497 kts | 123° |
| 2026-04-22 12:04 | 41.72334 | 20.49345 | 37011 ft | 499 kts | 123° |
| 2026-04-22 12:04 | 41.68840 | 20.57308 | 37004 ft | 500 kts | 123° |
| 2026-04-22 12:05 | 41.65262 | 20.65347 | 37003 ft | 500 kts | 124° |
| 2026-04-22 12:05 | 41.61719 | 20.73267 | 36998 ft | 499 kts | 124° |
| 2026-04-22 12:06 | 41.58159 | 20.81200 | 37009 ft | 497 kts | 124° |
| 2026-04-22 12:06 | 41.54622 | 20.89098 | 37028 ft | 494 kts | 124° |
| 2026-04-22 12:07 | 41.51086 | 20.96954 | 37035 ft | 493 kts | 124° |
| 2026-04-22 12:07 | 41.47550 | 21.04783 | 37019 ft | 493 kts | 124° |
| 2026-04-22 12:08 | 41.44007 | 21.12597 | 37032 ft | 492 kts | 124° |
| 2026-04-22 12:08 | 41.40470 | 21.20396 | 37039 ft | 492 kts | 124° |
| 2026-04-22 12:09 | 41.36931 | 21.28190 | 37033 ft | 492 kts | 124° |
| 2026-04-22 12:09 | 41.33381 | 21.35967 | 37045 ft | 491 kts | 124° |
| 2026-04-22 12:10 | 41.29831 | 21.43736 | 37037 ft | 492 kts | 124° |
| 2026-04-22 12:10 | 41.26301 | 21.51444 | 37044 ft | 491 kts | 124° |
| 2026-04-22 12:11 | 41.22736 | 21.59198 | 37040 ft | 492 kts | 124° |
| 2026-04-22 12:11 | 41.19164 | 21.66943 | 37035 ft | 492 kts | 124° |
| 2026-04-22 12:12 | 41.15585 | 21.74688 | 37051 ft | 492 kts | 124° |
| 2026-04-22 12:12 | 41.12004 | 21.82427 | 37031 ft | 493 kts | 124° |
| 2026-04-22 12:13 | 41.08415 | 21.90158 | 37042 ft | 492 kts | 124° |
| 2026-04-22 12:13 | 41.04532 | 21.97595 | 37050 ft | 489 kts | 131° |
| 2026-04-22 12:14 | 41.00364 | 22.04721 | 37040 ft | 489 kts | 131° |
| 2026-04-22 12:14 | 40.96209 | 22.11848 | 37046 ft | 489 kts | 131° |
| 2026-04-22 12:15 | 40.92095 | 22.19007 | 37045 ft | 489 kts | 131° |
| 2026-04-22 12:15 | 40.87984 | 22.26175 | 37052 ft | 489 kts | 131° |
| 2026-04-22 12:16 | 40.83866 | 22.33343 | 37043 ft | 490 kts | 131° |
| 2026-04-22 12:16 | 40.79747 | 22.40489 | 37047 ft | 489 kts | 131° |
| 2026-04-22 12:17 | 40.75619 | 22.47633 | 37045 ft | 489 kts | 131° |
| 2026-04-22 12:17 | 40.71496 | 22.54769 | 37039 ft | 489 kts | 131° |
| 2026-04-22 12:18 | 40.67372 | 22.61899 | 37045 ft | 489 kts | 131° |
| 2026-04-22 12:18 | 40.63248 | 22.69011 | 37046 ft | 488 kts | 131° |
| 2026-04-22 12:19 | 40.59123 | 22.76110 | 37043 ft | 488 kts | 131° |
| 2026-04-22 12:19 | 40.54992 | 22.83201 | 37045 ft | 488 kts | 131° |
| 2026-04-22 12:20 | 40.50860 | 22.90281 | 37049 ft | 488 kts | 131° |
| 2026-04-22 12:20 | 40.46719 | 22.97358 | 37045 ft | 488 kts | 131° |
| 2026-04-22 12:21 | 40.42313 | 23.04100 | 37053 ft | 485 kts | 138° |
| 2026-04-22 12:21 | 40.37628 | 23.10443 | 37051 ft | 484 kts | 139° |
| 2026-04-22 12:22 | 40.32930 | 23.16774 | 37045 ft | 484 kts | 139° |
| 2026-04-22 12:22 | 40.28262 | 23.23146 | 37048 ft | 485 kts | 138° |
| 2026-04-22 12:23 | 40.23608 | 23.29541 | 37043 ft | 485 kts | 138° |
| 2026-04-22 12:23 | 40.18987 | 23.35885 | 37033 ft | 485 kts | 138° |
| 2026-04-22 12:24 | 40.14330 | 23.42259 | 37040 ft | 484 kts | 139° |
| 2026-04-22 12:24 | 40.09668 | 23.48620 | 37037 ft | 484 kts | 139° |
| 2026-04-22 12:25 | 40.05010 | 23.54963 | 37032 ft | 484 kts | 139° |
| 2026-04-22 12:25 | 40.00353 | 23.61293 | 37043 ft | 483 kts | 139° |
| 2026-04-22 12:26 | 39.95644 | 23.67537 | 37037 ft | 482 kts | 140° |
| 2026-04-22 12:26 | 39.90894 | 23.73682 | 37040 ft | 481 kts | 140° |
| 2026-04-22 12:27 | 39.86141 | 23.79821 | 37032 ft | 481 kts | 140° |
| 2026-04-22 12:27 | 39.81396 | 23.85966 | 37031 ft | 481 kts | 140° |
| 2026-04-22 12:28 | 39.77428 | 23.91108 | 37027 ft | 481 kts | 140° |
| 2026-04-22 12:28 | 39.72686 | 23.97239 | 37028 ft | 481 kts | 140° |
| 2026-04-22 12:29 | 39.67970 | 24.03323 | 37029 ft | 481 kts | 140° |
| 2026-04-22 12:29 | 39.63222 | 24.09436 | 37029 ft | 481 kts | 140° |
| 2026-04-22 12:30 | 39.56094 | 24.18597 | 37017 ft | 481 kts | 140° |
| 2026-04-22 12:31 | 39.51336 | 24.24690 | 37020 ft | 481 kts | 140° |
| 2026-04-22 12:31 | 39.46576 | 24.30772 | 37019 ft | 480 kts | 140° |
| 2026-04-22 12:32 | 39.41816 | 24.36838 | 37018 ft | 480 kts | 140° |
| 2026-04-22 12:32 | 39.34681 | 24.45917 | 37019 ft | 479 kts | 140° |
| 2026-04-22 12:33 | 39.29927 | 24.51950 | 37021 ft | 479 kts | 140° |
| 2026-04-22 12:33 | 39.25179 | 24.57967 | 37016 ft | 478 kts | 140° |
| 2026-04-22 12:34 | 39.20435 | 24.63971 | 37019 ft | 477 kts | 140° |
| 2026-04-22 12:34 | 39.15693 | 24.69953 | 37015 ft | 477 kts | 140° |
| 2026-04-22 12:35 | 39.10949 | 24.75922 | 37009 ft | 476 kts | 140° |
| 2026-04-22 12:35 | 39.06213 | 24.81877 | 37011 ft | 476 kts | 140° |
| 2026-04-22 12:36 | 39.01512 | 24.87774 | 37006 ft | 475 kts | 141° |
| 2026-04-22 12:36 | 38.96782 | 24.93691 | 37004 ft | 474 kts | 141° |
| 2026-04-22 12:37 | 38.92028 | 24.99632 | 36999 ft | 474 kts | 141° |
| 2026-04-22 12:37 | 38.87336 | 25.05486 | 37000 ft | 473 kts | 141° |
| 2026-04-22 12:38 | 38.82615 | 25.11361 | 36998 ft | 473 kts | 141° |
| 2026-04-22 12:38 | 38.77881 | 25.17241 | 36619 ft | 475 kts | 141° |
| 2026-04-22 12:39 | 38.75531 | 25.20157 | 36287 ft | 469 kts | 141° |
| 2026-04-22 12:39 | 38.70877 | 25.25928 | 35518 ft | 462 kts | 141° |
| 2026-04-22 12:39 | 38.68572 | 25.28781 | 35133 ft | 459 kts | 141° |
| 2026-04-22 12:40 | 38.66280 | 25.31613 | 34749 ft | 457 kts | 141° |
| 2026-04-22 12:40 | 38.63998 | 25.34429 | 34361 ft | 454 kts | 141° |
| 2026-04-22 12:40 | 38.61727 | 25.37229 | 33974 ft | 452 kts | 141° |
| 2026-04-22 12:40 | 38.59469 | 25.40011 | 33588 ft | 450 kts | 141° |
| 2026-04-22 12:41 | 38.57225 | 25.42771 | 33207 ft | 447 kts | 141° |
| 2026-04-22 12:41 | 38.54985 | 25.45526 | 32831 ft | 445 kts | 141° |
| 2026-04-22 12:41 | 38.52759 | 25.48262 | 32449 ft | 443 kts | 141° |
| 2026-04-22 12:41 | 38.50542 | 25.50983 | 32073 ft | 441 kts | 141° |
| 2026-04-22 12:42 | 38.48337 | 25.53689 | 31702 ft | 439 kts | 141° |
| 2026-04-22 12:42 | 38.46142 | 25.56378 | 31333 ft | 436 kts | 140° |
| 2026-04-22 12:42 | 38.43958 | 25.59052 | 30965 ft | 434 kts | 140° |
| 2026-04-22 12:42 | 38.41785 | 25.61711 | 30591 ft | 432 kts | 140° |
| 2026-04-22 12:43 | 38.39620 | 25.64358 | 30229 ft | 430 kts | 140° |
| 2026-04-22 12:43 | 38.37467 | 25.66987 | 29869 ft | 428 kts | 140° |
| 2026-04-22 12:43 | 38.35322 | 25.69604 | 29507 ft | 426 kts | 140° |
| 2026-04-22 12:43 | 38.33184 | 25.72209 | 29132 ft | 424 kts | 140° |
| 2026-04-22 12:44 | 38.31057 | 25.74800 | 28753 ft | 422 kts | 140° |
| 2026-04-22 12:44 | 38.28941 | 25.77375 | 28379 ft | 421 kts | 140° |
| 2026-04-22 12:44 | 38.26828 | 25.79944 | 27997 ft | 419 kts | 140° |
| 2026-04-22 12:44 | 38.24722 | 25.82502 | 27621 ft | 418 kts | 140° |
| 2026-04-22 12:45 | 38.22623 | 25.85050 | 27249 ft | 416 kts | 140° |
| 2026-04-22 12:45 | 38.20531 | 25.87586 | 26878 ft | 415 kts | 140° |
| 2026-04-22 12:45 | 38.18448 | 25.90112 | 26502 ft | 413 kts | 140° |
| 2026-04-22 12:45 | 38.16346 | 25.92585 | 26158 ft | 409 kts | 144° |
| 2026-04-22 12:46 | 38.13990 | 25.94617 | 25286 ft | 415 kts | 154° |
| 2026-04-22 12:46 | 38.11448 | 25.96489 | 24350 ft | 428 kts | 154° |
| 2026-04-22 12:46 | 38.08859 | 25.98369 | 23832 ft | 427 kts | 154° |
| 2026-04-22 12:46 | 38.06299 | 26.00236 | 23512 ft | 422 kts | 154° |
| 2026-04-22 12:47 | 38.03774 | 26.02092 | 23153 ft | 418 kts | 154° |
| 2026-04-22 12:47 | 38.01271 | 26.03943 | 22728 ft | 416 kts | 154° |
| 2026-04-22 12:47 | 37.98785 | 26.05788 | 22307 ft | 413 kts | 154° |
| 2026-04-22 12:47 | 37.96299 | 26.07634 | 21641 ft | 417 kts | 154° |
| 2026-04-22 12:48 | 37.93782 | 26.09503 | 21011 ft | 421 kts | 154° |
| 2026-04-22 12:48 | 37.91292 | 26.11354 | 20567 ft | 418 kts | 153° |
| 2026-04-22 12:48 | 37.88798 | 26.13209 | 20162 ft | 414 kts | 153° |
| 2026-04-22 12:48 | 37.86325 | 26.15047 | 19736 ft | 411 kts | 153° |
| 2026-04-22 12:49 | 37.83862 | 26.16877 | 19281 ft | 409 kts | 153° |
| 2026-04-22 12:49 | 37.81416 | 26.18691 | 18842 ft | 407 kts | 153° |
| 2026-04-22 12:49 | 37.78983 | 26.20494 | 18423 ft | 404 kts | 153° |
| 2026-04-22 12:49 | 37.76567 | 26.22282 | 17978 ft | 401 kts | 153° |
| 2026-04-22 12:50 | 37.74166 | 26.24058 | 17569 ft | 398 kts | 153° |
| 2026-04-22 12:50 | 37.71779 | 26.25822 | 17171 ft | 396 kts | 153° |
| 2026-04-22 12:50 | 37.69417 | 26.27566 | 16802 ft | 391 kts | 153° |
| 2026-04-22 12:50 | 37.67086 | 26.29283 | 16380 ft | 386 kts | 153° |
| 2026-04-22 12:51 | 37.64771 | 26.30995 | 15797 ft | 388 kts | 153° |
| 2026-04-22 12:51 | 37.62462 | 26.32738 | 15437 ft | 381 kts | 153° |
| 2026-04-22 12:51 | 37.60195 | 26.34429 | 15080 ft | 377 kts | 153° |
| 2026-04-22 12:51 | 37.57936 | 26.36093 | 14643 ft | 375 kts | 154° |
| 2026-04-22 12:52 | 37.55682 | 26.37731 | 14262 ft | 373 kts | 154° |
| 2026-04-22 12:52 | 37.53446 | 26.39368 | 13905 ft | 372 kts | 153° |
| 2026-04-22 12:52 | 37.51229 | 26.40977 | 13579 ft | 366 kts | 153° |
| 2026-04-22 12:52 | 37.49033 | 26.42577 | 13172 ft | 364 kts | 153° |
| 2026-04-22 12:53 | 37.46851 | 26.44170 | 12795 ft | 362 kts | 153° |
| 2026-04-22 12:53 | 37.44688 | 26.45752 | 12452 ft | 358 kts | 153° |
| 2026-04-22 12:53 | 37.42541 | 26.47318 | 12099 ft | 355 kts | 153° |
| 2026-04-22 12:53 | 37.40413 | 26.48875 | 11664 ft | 354 kts | 153° |
| 2026-04-22 12:54 | 37.38286 | 26.50431 | 11307 ft | 352 kts | 153° |
| 2026-04-22 12:54 | 37.36195 | 26.51962 | 11165 ft | 342 kts | 153° |
| 2026-04-22 12:54 | 37.34191 | 26.53430 | 11053 ft | 325 kts | 153° |
| 2026-04-22 12:54 | 37.32287 | 26.54824 | 10923 ft | 309 kts | 153° |
| 2026-04-22 12:55 | 37.30463 | 26.56159 | 10677 ft | 300 kts | 153° |
| 2026-04-22 12:55 | 37.28667 | 26.57468 | 10264 ft | 297 kts | 153° |
| 2026-04-22 12:55 | 37.26881 | 26.58767 | 9828 ft | 298 kts | 153° |
| 2026-04-22 12:55 | 37.25087 | 26.60068 | 9578 ft | 297 kts | 153° |
| 2026-04-22 12:56 | 37.23310 | 26.61356 | 9407 ft | 293 kts | 153° |
| 2026-04-22 12:56 | 37.21552 | 26.62636 | 9137 ft | 292 kts | 153° |
| 2026-04-22 12:56 | 37.19802 | 26.63909 | 8865 ft | 291 kts | 153° |
| 2026-04-22 12:56 | 37.18052 | 26.65181 | 8621 ft | 290 kts | 153° |
| 2026-04-22 12:57 | 37.16312 | 26.66445 | 8397 ft | 288 kts | 153° |
| 2026-04-22 12:57 | 37.14584 | 26.67702 | 8153 ft | 287 kts | 153° |
| 2026-04-22 12:57 | 37.12864 | 26.68948 | 7918 ft | 285 kts | 153° |
| 2026-04-22 12:57 | 37.11145 | 26.70194 | 7664 ft | 285 kts | 153° |
| 2026-04-22 12:58 | 37.09436 | 26.71433 | 7458 ft | 283 kts | 153° |
| 2026-04-22 12:58 | 37.07756 | 26.72651 | 7230 ft | 282 kts | 153° |
| 2026-04-22 12:58 | 37.06065 | 26.73866 | 6985 ft | 278 kts | 153° |
| 2026-04-22 12:58 | 37.04396 | 26.75077 | 6527 ft | 278 kts | 152° |
| 2026-04-22 12:59 | 37.02726 | 26.76287 | 6101 ft | 277 kts | 152° |
| 2026-04-22 12:59 | 37.01063 | 26.77495 | 5735 ft | 274 kts | 152° |
| 2026-04-22 12:59 | 36.99413 | 26.78687 | 5353 ft | 273 kts | 152° |
| 2026-04-22 12:59 | 36.97779 | 26.79865 | 4957 ft | 271 kts | 152° |
| 2026-04-22 13:00 | 36.96157 | 26.81035 | 4576 ft | 268 kts | 152° |
| 2026-04-22 13:00 | 36.94565 | 26.82230 | 4206 ft | 266 kts | 145° |
| 2026-04-22 13:00 | 36.93388 | 26.84016 | 3744 ft | 272 kts | 114° |
| 2026-04-22 13:00 | 36.93070 | 26.86322 | 3424 ft | 273 kts | 85° |
| 2026-04-22 13:01 | 36.93622 | 26.88557 | 3389 ft | 265 kts | 63° |
| 2026-04-22 13:01 | 36.94561 | 26.90476 | 3372 ft | 253 kts | 57° |
| 2026-04-22 13:01 | 36.95517 | 26.92262 | 3372 ft | 241 kts | 60° |
| 2026-04-22 13:01 | 36.95949 | 26.94185 | 3388 ft | 226 kts | 96° |
| 2026-04-22 13:02 | 36.95468 | 26.96032 | 3386 ft | 222 kts | 124° |
| 2026-04-22 13:02 | 36.94485 | 26.97416 | 3372 ft | 205 kts | 144° |
| 2026-04-22 13:02 | 36.93356 | 26.98356 | 3372 ft | 187 kts | 150° |
| 2026-04-22 13:02 | 36.92286 | 26.99179 | 3376 ft | 180 kts | 150° |
| 2026-04-22 13:03 | 36.91208 | 26.99998 | 3303 ft | 184 kts | 151° |
| 2026-04-22 13:03 | 36.90077 | 27.00864 | 2820 ft | 188 kts | 150° |
| 2026-04-22 13:03 | 36.88995 | 27.01699 | 2478 ft | 177 kts | 150° |
| 2026-04-22 13:03 | 36.87991 | 27.02476 | 2266 ft | 161 kts | 150° |
| 2026-04-22 13:04 | 36.87075 | 27.03187 | 2008 ft | 150 kts | 150° |
| 2026-04-22 13:04 | 36.86194 | 27.03869 | 1751 ft | 150 kts | 150° |
| 2026-04-22 13:04 | 36.85325 | 27.04553 | 1551 ft | 146 kts | 150° |
| 2026-04-22 13:04 | 36.84460 | 27.05220 | 1365 ft | 145 kts | 151° |
| 2026-04-22 13:05 | 36.83606 | 27.05882 | 1177 ft | 144 kts | 149° |
| 2026-04-22 13:05 | 36.82760 | 27.06550 | 1013 ft | 144 kts | 150° |
| 2026-04-22 13:05 | 36.81907 | 27.07206 | 808 ft | 145 kts | 150° |
| 2026-04-22 13:05 | 36.81051 | 27.07876 | 628 ft | 145 kts | 150° |
| 2026-04-22 13:06 | 36.80210 | 27.08535 | 430 ft | 142 kts | 149° |
| 2026-04-22 13:06 | 36.79468 | 27.09107 | 416 ft | 99 kts | 148° |
| 2026-04-22 13:06 | 36.79067 | 27.09419 | 395 ft | 42 kts | 148° |
| 2026-04-22 13:06 | 36.78836 | 27.09599 | 394 ft | 36 kts | 148° |
| 2026-04-22 13:07 | 36.78658 | 27.09738 | 392 ft | 24 kts | 147° |
| 2026-04-22 13:07 | 36.78590 | 27.09828 | 387 ft | 10 kts | 131° |
| 2026-04-22 13:07 | 36.78564 | 27.09795 | 388 ft | 8 kts | 303° |
| 2026-04-22 13:07 | 36.78613 | 27.09764 | 390 ft | 8 kts | 335° |
| 2026-04-22 13:08 | 36.78660 | 27.09733 | 392 ft | 8 kts | 331° |
| 2026-04-22 13:08 | 36.78705 | 27.09702 | 392 ft | 7 kts | 329° |
| 2026-04-22 13:08 | 36.78755 | 27.09662 | 392 ft | 11 kts | 327° |
| 2026-04-22 13:08 | 36.78831 | 27.09600 | 394 ft | 15 kts | 327° |
| 2026-04-22 13:09 | 36.78919 | 27.09533 | 396 ft | 16 kts | 328° |
| 2026-04-22 13:09 | 36.79033 | 27.09443 | 398 ft | 23 kts | 328° |
| 2026-04-22 13:09 | 36.79187 | 27.09323 | 404 ft | 29 kts | 328° |
| 2026-04-22 13:09 | 36.79367 | 27.09183 | 413 ft | 32 kts | 328° |
| 2026-04-22 13:10 | 36.79559 | 27.09034 | 410 ft | 32 kts | 329° |
| 2026-04-22 13:10 | 36.79718 | 27.08987 | 418 ft | 20 kts | 359° |
| 2026-04-22 13:10 | 36.79795 | 27.08985 | 418 ft | 10 kts | 358° |
| 2026-04-22 13:10 | 36.79863 | 27.08982 | 418 ft | 10 kts | 359° |
| 2026-04-22 13:11 | 36.79906 | 27.09033 | 418 ft | 9 kts | 58° |
| 2026-04-22 13:11 | 36.79932 | 27.09084 | 414 ft | 4 kts | 58° |
| 2026-04-22 13:11 | 36.79933 | 27.09086 | 418 ft | 0 kts | 58° |